sensor_id;sensor_type;location;lat;lon;timestamp;P1;durP1;ratioP1;P2;durP2;ratioP2
5704;SDS011;2877;48.238;11.160;2023-10-19T00:01:12;22.13;;;15.43;;
5704;SDS011;2877;48.238;11.160;2023-10-19T00:03:40;24.80;;;17.47;;
5704;SDS011;2877;48.238;11.160;2023-10-19T00:06:06;27.80;;;17.40;;
5704;SDS011;2877;48.238;11.160;2023-10-19T00:08:31;23.87;;;15.97;;
5704;SDS011;2877;48.238;11.160;2023-10-19T00:11:06;27.10;;;17.00;;
5704;SDS011;2877;48.238;11.160;2023-10-19T00:13:46;21.10;;;15.00;;
5704;SDS011;2877;48.238;11.160;2023-10-19T00:16:14;22.93;;;15.43;;
5704;SDS011;2877;48.238;11.160;2023-10-19T00:18:47;23.70;;;16.87;;
5704;SDS011;2877;48.238;11.160;2023-10-19T00:21:13;26.70;;;17.07;;
5704;SDS011;2877;48.238;11.160;2023-10-19T00:23:50;25.40;;;16.77;;
5704;SDS011;2877;48.238;11.160;2023-10-19T00:26:17;29.20;;;18.00;;
5704;SDS011;2877;48.238;11.160;2023-10-19T00:28:45;24.80;;;16.10;;
5704;SDS011;2877;48.238;11.160;2023-10-19T00:31:13;25.53;;;18.47;;
5704;SDS011;2877;48.238;11.160;2023-10-19T00:33:39;25.60;;;17.73;;
5704;SDS011;2877;48.238;11.160;2023-10-19T00:36:08;23.33;;;16.37;;
5704;SDS011;2877;48.238;11.160;2023-10-19T00:38:38;23.67;;;16.60;;
5704;SDS011;2877;48.238;11.160;2023-10-19T00:41:07;28.97;;;17.33;;
5704;SDS011;2877;48.238;11.160;2023-10-19T00:43:34;30.83;;;16.20;;
5704;SDS011;2877;48.238;11.160;2023-10-19T00:46:02;24.57;;;16.83;;
5704;SDS011;2877;48.238;11.160;2023-10-19T00:48:34;23.90;;;16.87;;
5704;SDS011;2877;48.238;11.160;2023-10-19T00:51:00;22.57;;;16.10;;
5704;SDS011;2877;48.238;11.160;2023-10-19T00:53:33;25.13;;;16.50;;
5704;SDS011;2877;48.238;11.160;2023-10-19T00:56:01;27.13;;;16.47;;
5704;SDS011;2877;48.238;11.160;2023-10-19T00:58:30;26.50;;;16.20;;
5704;SDS011;2877;48.238;11.160;2023-10-19T01:00:56;25.33;;;16.90;;
5704;SDS011;2877;48.238;11.160;2023-10-19T01:03:24;23.10;;;15.20;;
5704;SDS011;2877;48.238;11.160;2023-10-19T01:05:56;25.03;;;16.10;;
5704;SDS011;2877;48.238;11.160;2023-10-19T01:08:23;22.00;;;15.20;;
5704;SDS011;2877;48.238;11.160;2023-10-19T01:10:50;27.00;;;16.87;;
5704;SDS011;2877;48.238;11.160;2023-10-19T01:13:17;22.10;;;14.70;;
5704;SDS011;2877;48.238;11.160;2023-10-19T01:15:51;24.83;;;16.03;;
5704;SDS011;2877;48.238;11.160;2023-10-19T01:18:17;23.63;;;15.40;;
5704;SDS011;2877;48.238;11.160;2023-10-19T01:20:44;22.50;;;15.83;;
5704;SDS011;2877;48.238;11.160;2023-10-19T01:23:16;23.67;;;15.97;;
5704;SDS011;2877;48.238;11.160;2023-10-19T01:25:51;23.37;;;14.87;;
5704;SDS011;2877;48.238;11.160;2023-10-19T01:28:21;21.80;;;14.83;;
5704;SDS011;2877;48.238;11.160;2023-10-19T01:30:53;27.13;;;16.90;;
5704;SDS011;2877;48.238;11.160;2023-10-19T01:33:20;21.23;;;15.27;;
5704;SDS011;2877;48.238;11.160;2023-10-19T01:35:47;24.27;;;15.77;;
5704;SDS011;2877;48.238;11.160;2023-10-19T01:38:32;26.23;;;14.43;;
5704;SDS011;2877;48.238;11.160;2023-10-19T01:40:58;23.67;;;16.17;;
5704;SDS011;2877;48.238;11.160;2023-10-19T01:43:28;22.50;;;15.00;;
5704;SDS011;2877;48.238;11.160;2023-10-19T01:45:57;22.63;;;15.67;;
5704;SDS011;2877;48.238;11.160;2023-10-19T01:48:28;29.77;;;14.97;;
5704;SDS011;2877;48.238;11.160;2023-10-19T01:50:59;22.07;;;15.63;;
5704;SDS011;2877;48.238;11.160;2023-10-19T01:53:29;23.30;;;15.43;;
5704;SDS011;2877;48.238;11.160;2023-10-19T01:55:56;23.30;;;15.60;;
5704;SDS011;2877;48.238;11.160;2023-10-19T01:58:25;21.77;;;15.03;;
5704;SDS011;2877;48.238;11.160;2023-10-19T02:00:51;28.50;;;16.10;;
5704;SDS011;2877;48.238;11.160;2023-10-19T02:03:25;23.20;;;15.23;;
5704;SDS011;2877;48.238;11.160;2023-10-19T02:05:59;22.57;;;15.57;;
5704;SDS011;2877;48.238;11.160;2023-10-19T02:08:34;22.37;;;15.67;;
5704;SDS011;2877;48.238;11.160;2023-10-19T02:11:03;21.23;;;15.43;;
5704;SDS011;2877;48.238;11.160;2023-10-19T02:13:34;21.93;;;14.23;;
5704;SDS011;2877;48.238;11.160;2023-10-19T02:16:01;20.30;;;14.40;;
5704;SDS011;2877;48.238;11.160;2023-10-19T02:18:26;23.23;;;15.20;;
5704;SDS011;2877;48.238;11.160;2023-10-19T02:20:52;24.83;;;14.83;;
5704;SDS011;2877;48.238;11.160;2023-10-19T02:23:17;22.17;;;15.40;;
5704;SDS011;2877;48.238;11.160;2023-10-19T02:25:43;20.60;;;14.70;;
5704;SDS011;2877;48.238;11.160;2023-10-19T02:28:09;20.63;;;15.60;;
5704;SDS011;2877;48.238;11.160;2023-10-19T02:30:36;23.97;;;14.23;;
5704;SDS011;2877;48.238;11.160;2023-10-19T02:33:02;18.70;;;14.07;;
5704;SDS011;2877;48.238;11.160;2023-10-19T02:35:31;21.40;;;14.00;;
5704;SDS011;2877;48.238;11.160;2023-10-19T02:37:56;19.00;;;13.83;;
5704;SDS011;2877;48.238;11.160;2023-10-19T02:40:23;19.67;;;14.30;;
5704;SDS011;2877;48.238;11.160;2023-10-19T02:42:50;22.80;;;13.63;;
5704;SDS011;2877;48.238;11.160;2023-10-19T02:45:15;20.43;;;13.60;;
5704;SDS011;2877;48.238;11.160;2023-10-19T02:47:45;19.57;;;14.27;;
5704;SDS011;2877;48.238;11.160;2023-10-19T02:50:11;18.73;;;13.83;;
5704;SDS011;2877;48.238;11.160;2023-10-19T02:52:42;19.80;;;13.90;;
5704;SDS011;2877;48.238;11.160;2023-10-19T02:55:08;17.00;;;13.03;;
5704;SDS011;2877;48.238;11.160;2023-10-19T02:57:35;18.07;;;14.17;;
5704;SDS011;2877;48.238;11.160;2023-10-19T03:00:02;15.80;;;12.20;;
5704;SDS011;2877;48.238;11.160;2023-10-19T03:02:36;14.73;;;11.80;;
5704;SDS011;2877;48.238;11.160;2023-10-19T03:05:01;22.23;;;13.60;;
5704;SDS011;2877;48.238;11.160;2023-10-19T03:07:36;17.07;;;12.13;;
5704;SDS011;2877;48.238;11.160;2023-10-19T03:10:01;18.43;;;12.20;;
5704;SDS011;2877;48.238;11.160;2023-10-19T03:12:27;13.57;;;10.70;;
5704;SDS011;2877;48.238;11.160;2023-10-19T03:14:52;18.70;;;13.00;;
5704;SDS011;2877;48.238;11.160;2023-10-19T03:17:18;19.37;;;13.90;;
5704;SDS011;2877;48.238;11.160;2023-10-19T03:19:44;17.50;;;12.33;;
5704;SDS011;2877;48.238;11.160;2023-10-19T03:22:10;17.43;;;13.27;;
5704;SDS011;2877;48.238;11.160;2023-10-19T03:24:36;20.20;;;14.17;;
5704;SDS011;2877;48.238;11.160;2023-10-19T03:27:09;18.50;;;12.13;;
5704;SDS011;2877;48.238;11.160;2023-10-19T03:29:41;16.47;;;12.60;;
5704;SDS011;2877;48.238;11.160;2023-10-19T03:32:11;15.83;;;12.97;;
5704;SDS011;2877;48.238;11.160;2023-10-19T03:34:37;16.60;;;11.97;;
5704;SDS011;2877;48.238;11.160;2023-10-19T03:37:03;19.07;;;12.77;;
5704;SDS011;2877;48.238;11.160;2023-10-19T03:39:34;17.77;;;12.60;;
5704;SDS011;2877;48.238;11.160;2023-10-19T03:42:02;16.13;;;12.50;;
5704;SDS011;2877;48.238;11.160;2023-10-19T03:44:31;17.77;;;12.97;;
5704;SDS011;2877;48.238;11.160;2023-10-19T03:47:18;19.83;;;14.03;;
5704;SDS011;2877;48.238;11.160;2023-10-19T03:49:45;17.87;;;12.17;;
5704;SDS011;2877;48.238;11.160;2023-10-19T03:52:12;18.37;;;12.57;;
5704;SDS011;2877;48.238;11.160;2023-10-19T03:54:38;23.63;;;14.03;;
5704;SDS011;2877;48.238;11.160;2023-10-19T03:57:05;17.40;;;12.47;;
5704;SDS011;2877;48.238;11.160;2023-10-19T03:59:40;17.97;;;12.33;;
5704;SDS011;2877;48.238;11.160;2023-10-19T04:02:07;17.20;;;12.10;;
5704;SDS011;2877;48.238;11.160;2023-10-19T04:04:39;13.80;;;11.47;;
5704;SDS011;2877;48.238;11.160;2023-10-19T04:07:08;15.33;;;11.80;;
5704;SDS011;2877;48.238;11.160;2023-10-19T04:09:38;15.53;;;11.90;;
5704;SDS011;2877;48.238;11.160;2023-10-19T04:12:22;17.80;;;11.60;;
5704;SDS011;2877;48.238;11.160;2023-10-19T04:14:48;14.40;;;11.20;;
5704;SDS011;2877;48.238;11.160;2023-10-19T04:17:14;14.60;;;11.43;;
5704;SDS011;2877;48.238;11.160;2023-10-19T04:19:39;17.50;;;12.50;;
5704;SDS011;2877;48.238;11.160;2023-10-19T04:22:05;14.43;;;11.30;;
5704;SDS011;2877;48.238;11.160;2023-10-19T04:24:30;15.87;;;12.37;;
5704;SDS011;2877;48.238;11.160;2023-10-19T04:26:58;14.30;;;11.20;;
5704;SDS011;2877;48.238;11.160;2023-10-19T04:29:24;14.40;;;11.50;;
5704;SDS011;2877;48.238;11.160;2023-10-19T04:31:52;17.67;;;12.10;;
5704;SDS011;2877;48.238;11.160;2023-10-19T04:34:21;14.53;;;11.53;;
5704;SDS011;2877;48.238;11.160;2023-10-19T04:36:48;14.47;;;11.27;;
5704;SDS011;2877;48.238;11.160;2023-10-19T04:39:13;18.30;;;12.47;;
5704;SDS011;2877;48.238;11.160;2023-10-19T04:41:42;16.90;;;12.10;;
5704;SDS011;2877;48.238;11.160;2023-10-19T04:44:09;17.90;;;11.30;;
5704;SDS011;2877;48.238;11.160;2023-10-19T04:46:35;15.23;;;11.50;;
5704;SDS011;2877;48.238;11.160;2023-10-19T04:49:01;16.20;;;12.50;;
5704;SDS011;2877;48.238;11.160;2023-10-19T04:51:27;13.23;;;10.17;;
5704;SDS011;2877;48.238;11.160;2023-10-19T04:53:53;13.03;;;10.50;;
5704;SDS011;2877;48.238;11.160;2023-10-19T04:56:20;16.63;;;11.23;;
5704;SDS011;2877;48.238;11.160;2023-10-19T04:58:46;13.10;;;10.30;;
5704;SDS011;2877;48.238;11.160;2023-10-19T05:01:12;16.37;;;12.00;;
5704;SDS011;2877;48.238;11.160;2023-10-19T05:03:38;14.83;;;11.27;;
5704;SDS011;2877;48.238;11.160;2023-10-19T05:06:03;15.10;;;10.73;;
5704;SDS011;2877;48.238;11.160;2023-10-19T05:08:29;13.97;;;11.57;;
5704;SDS011;2877;48.238;11.160;2023-10-19T05:10:55;13.53;;;10.80;;
5704;SDS011;2877;48.238;11.160;2023-10-19T05:13:24;13.30;;;10.70;;
5704;SDS011;2877;48.238;11.160;2023-10-19T05:15:51;13.27;;;10.93;;
5704;SDS011;2877;48.238;11.160;2023-10-19T05:18:18;14.50;;;11.10;;
5704;SDS011;2877;48.238;11.160;2023-10-19T05:20:45;13.77;;;11.43;;
5704;SDS011;2877;48.238;11.160;2023-10-19T05:23:11;15.70;;;11.23;;
5704;SDS011;2877;48.238;11.160;2023-10-19T05:25:38;17.10;;;11.90;;
5704;SDS011;2877;48.238;11.160;2023-10-19T05:28:04;14.23;;;11.70;;
5704;SDS011;2877;48.238;11.160;2023-10-19T05:30:31;13.30;;;11.07;;
5704;SDS011;2877;48.238;11.160;2023-10-19T05:32:57;13.27;;;10.87;;
5704;SDS011;2877;48.238;11.160;2023-10-19T05:35:24;12.83;;;10.70;;
5704;SDS011;2877;48.238;11.160;2023-10-19T05:37:51;15.73;;;10.33;;
5704;SDS011;2877;48.238;11.160;2023-10-19T05:40:17;12.33;;;10.33;;
5704;SDS011;2877;48.238;11.160;2023-10-19T05:42:44;13.47;;;11.43;;
5704;SDS011;2877;48.238;11.160;2023-10-19T05:45:11;13.27;;;11.00;;
5704;SDS011;2877;48.238;11.160;2023-10-19T05:47:38;12.97;;;10.27;;
5704;SDS011;2877;48.238;11.160;2023-10-19T05:50:04;16.23;;;11.00;;
5704;SDS011;2877;48.238;11.160;2023-10-19T05:52:30;11.97;;;9.30;;
5704;SDS011;2877;48.238;11.160;2023-10-19T05:54:55;12.60;;;10.63;;
5704;SDS011;2877;48.238;11.160;2023-10-19T05:57:22;15.00;;;10.80;;
5704;SDS011;2877;48.238;11.160;2023-10-19T05:59:49;12.53;;;9.93;;
5704;SDS011;2877;48.238;11.160;2023-10-19T06:02:14;13.77;;;9.50;;
5704;SDS011;2877;48.238;11.160;2023-10-19T06:04:40;12.73;;;9.87;;
5704;SDS011;2877;48.238;11.160;2023-10-19T06:07:06;11.43;;;10.10;;
5704;SDS011;2877;48.238;11.160;2023-10-19T06:09:31;11.47;;;9.57;;
5704;SDS011;2877;48.238;11.160;2023-10-19T06:11:57;13.40;;;10.30;;
5704;SDS011;2877;48.238;11.160;2023-10-19T06:14:22;13.60;;;9.60;;
5704;SDS011;2877;48.238;11.160;2023-10-19T06:16:48;10.90;;;9.40;;
5704;SDS011;2877;48.238;11.160;2023-10-19T06:19:14;10.10;;;9.00;;
5704;SDS011;2877;48.238;11.160;2023-10-19T06:21:41;10.93;;;8.93;;
5704;SDS011;2877;48.238;11.160;2023-10-19T06:24:07;12.03;;;9.03;;
5704;SDS011;2877;48.238;11.160;2023-10-19T06:26:33;10.87;;;8.63;;
5704;SDS011;2877;48.238;11.160;2023-10-19T06:28:58;12.40;;;9.40;;
5704;SDS011;2877;48.238;11.160;2023-10-19T06:31:24;12.00;;;9.90;;
5704;SDS011;2877;48.238;11.160;2023-10-19T06:33:51;12.60;;;9.83;;
5704;SDS011;2877;48.238;11.160;2023-10-19T06:36:17;9.63;;;8.63;;
5704;SDS011;2877;48.238;11.160;2023-10-19T06:38:44;11.67;;;9.30;;
5704;SDS011;2877;48.238;11.160;2023-10-19T06:41:10;11.07;;;9.37;;
5704;SDS011;2877;48.238;11.160;2023-10-19T06:43:36;10.87;;;9.30;;
5704;SDS011;2877;48.238;11.160;2023-10-19T06:46:03;10.70;;;8.50;;
5704;SDS011;2877;48.238;11.160;2023-10-19T06:48:28;10.00;;;8.63;;
5704;SDS011;2877;48.238;11.160;2023-10-19T06:50:55;11.73;;;8.80;;
5704;SDS011;2877;48.238;11.160;2023-10-19T06:53:21;16.00;;;9.23;;
5704;SDS011;2877;48.238;11.160;2023-10-19T06:55:47;9.90;;;8.27;;
5704;SDS011;2877;48.238;11.160;2023-10-19T06:58:13;14.80;;;8.77;;
5704;SDS011;2877;48.238;11.160;2023-10-19T07:00:39;8.43;;;7.53;;
5704;SDS011;2877;48.238;11.160;2023-10-19T07:03:08;9.90;;;8.10;;
5704;SDS011;2877;48.238;11.160;2023-10-19T07:05:34;11.30;;;8.40;;
5704;SDS011;2877;48.238;11.160;2023-10-19T07:07:59;8.20;;;7.00;;
5704;SDS011;2877;48.238;11.160;2023-10-19T07:10:27;10.50;;;8.03;;
5704;SDS011;2877;48.238;11.160;2023-10-19T07:12:53;9.27;;;8.37;;
5704;SDS011;2877;48.238;11.160;2023-10-19T07:15:21;10.03;;;7.30;;
5704;SDS011;2877;48.238;11.160;2023-10-19T07:17:47;8.83;;;7.13;;
5704;SDS011;2877;48.238;11.160;2023-10-19T07:20:15;9.67;;;8.20;;
5704;SDS011;2877;48.238;11.160;2023-10-19T07:25:20;10.20;;;7.93;;
5704;SDS011;2877;48.238;11.160;2023-10-19T07:27:48;7.60;;;6.77;;
5704;SDS011;2877;48.238;11.160;2023-10-19T07:30:14;6.73;;;6.03;;
5704;SDS011;2877;48.238;11.160;2023-10-19T07:32:45;9.03;;;7.13;;
5704;SDS011;2877;48.238;11.160;2023-10-19T07:35:11;13.20;;;7.17;;
5704;SDS011;2877;48.238;11.160;2023-10-19T07:37:37;7.20;;;6.47;;
5704;SDS011;2877;48.238;11.160;2023-10-19T07:40:03;6.97;;;6.27;;
5704;SDS011;2877;48.238;11.160;2023-10-19T07:42:30;8.13;;;6.60;;
5704;SDS011;2877;48.238;11.160;2023-10-19T07:44:57;6.67;;;5.97;;
5704;SDS011;2877;48.238;11.160;2023-10-19T07:47:24;6.50;;;5.80;;
5704;SDS011;2877;48.238;11.160;2023-10-19T07:49:50;6.90;;;6.20;;
5704;SDS011;2877;48.238;11.160;2023-10-19T07:52:17;7.70;;;5.70;;
5704;SDS011;2877;48.238;11.160;2023-10-19T07:54:42;6.53;;;5.90;;
5704;SDS011;2877;48.238;11.160;2023-10-19T07:57:08;6.50;;;5.80;;
5704;SDS011;2877;48.238;11.160;2023-10-19T07:59:37;7.47;;;5.97;;
5704;SDS011;2877;48.238;11.160;2023-10-19T08:02:03;6.40;;;5.43;;
5704;SDS011;2877;48.238;11.160;2023-10-19T08:04:29;9.13;;;5.50;;
5704;SDS011;2877;48.238;11.160;2023-10-19T08:06:55;7.03;;;5.77;;
5704;SDS011;2877;48.238;11.160;2023-10-19T08:09:22;6.03;;;5.30;;
5704;SDS011;2877;48.238;11.160;2023-10-19T08:11:51;4.97;;;4.57;;
5704;SDS011;2877;48.238;11.160;2023-10-19T08:14:21;9.33;;;4.90;;
5704;SDS011;2877;48.238;11.160;2023-10-19T08:16:47;7.40;;;5.00;;
5704;SDS011;2877;48.238;11.160;2023-10-19T08:19:13;4.57;;;4.17;;
5704;SDS011;2877;48.238;11.160;2023-10-19T08:21:38;4.83;;;4.27;;
5704;SDS011;2877;48.238;11.160;2023-10-19T08:24:04;4.33;;;3.97;;
5704;SDS011;2877;48.238;11.160;2023-10-19T08:26:30;5.37;;;3.40;;
5704;SDS011;2877;48.238;11.160;2023-10-19T08:28:56;4.40;;;4.00;;
5704;SDS011;2877;48.238;11.160;2023-10-19T08:31:23;6.30;;;3.80;;
5704;SDS011;2877;48.238;11.160;2023-10-19T08:33:49;4.33;;;3.80;;
5704;SDS011;2877;48.238;11.160;2023-10-19T08:36:17;4.20;;;3.13;;
5704;SDS011;2877;48.238;11.160;2023-10-19T08:38:44;4.83;;;3.40;;
5704;SDS011;2877;48.238;11.160;2023-10-19T08:41:11;3.60;;;3.20;;
5704;SDS011;2877;48.238;11.160;2023-10-19T08:43:36;3.60;;;3.30;;
5704;SDS011;2877;48.238;11.160;2023-10-19T08:46:04;3.80;;;2.87;;
5704;SDS011;2877;48.238;11.160;2023-10-19T08:48:34;4.10;;;3.70;;
5704;SDS011;2877;48.238;11.160;2023-10-19T08:51:02;3.50;;;3.20;;
5704;SDS011;2877;48.238;11.160;2023-10-19T08:53:31;5.13;;;3.60;;
5704;SDS011;2877;48.238;11.160;2023-10-19T08:56:04;3.67;;;3.37;;
5704;SDS011;2877;48.238;11.160;2023-10-19T08:58:31;4.83;;;3.90;;
5704;SDS011;2877;48.238;11.160;2023-10-19T09:00:57;3.50;;;3.20;;
5704;SDS011;2877;48.238;11.160;2023-10-19T09:03:31;3.50;;;3.10;;
5704;SDS011;2877;48.238;11.160;2023-10-19T09:05:56;4.30;;;3.77;;
5704;SDS011;2877;48.238;11.160;2023-10-19T09:08:22;3.87;;;3.57;;
5704;SDS011;2877;48.238;11.160;2023-10-19T09:10:48;4.53;;;3.37;;
5704;SDS011;2877;48.238;11.160;2023-10-19T09:13:16;5.10;;;3.50;;
5704;SDS011;2877;48.238;11.160;2023-10-19T09:15:47;4.20;;;3.80;;
5704;SDS011;2877;48.238;11.160;2023-10-19T09:18:21;9.63;;;3.20;;
5704;SDS011;2877;48.238;11.160;2023-10-19T09:20:52;3.93;;;3.50;;
5704;SDS011;2877;48.238;11.160;2023-10-19T09:23:18;5.50;;;3.40;;
5704;SDS011;2877;48.238;11.160;2023-10-19T09:25:51;4.00;;;3.70;;
5704;SDS011;2877;48.238;11.160;2023-10-19T09:28:17;4.30;;;3.50;;
5704;SDS011;2877;48.238;11.160;2023-10-19T09:30:44;4.43;;;3.43;;
5704;SDS011;2877;48.238;11.160;2023-10-19T09:33:12;20.97;;;3.60;;
5704;SDS011;2877;48.238;11.160;2023-10-19T09:35:43;12.20;;;3.80;;
5704;SDS011;2877;48.238;11.160;2023-10-19T09:38:13;4.10;;;3.30;;
5704;SDS011;2877;48.238;11.160;2023-10-19T09:40:40;3.70;;;3.00;;
5704;SDS011;2877;48.238;11.160;2023-10-19T09:43:07;3.73;;;3.40;;
5704;SDS011;2877;48.238;11.160;2023-10-19T09:45:41;3.80;;;3.40;;
5704;SDS011;2877;48.238;11.160;2023-10-19T09:48:13;28.43;;;7.17;;
5704;SDS011;2877;48.238;11.160;2023-10-19T09:50:42;7.27;;;3.93;;
5704;SDS011;2877;48.238;11.160;2023-10-19T09:53:09;6.20;;;4.00;;
5704;SDS011;2877;48.238;11.160;2023-10-19T09:55:37;6.93;;;4.00;;
5704;SDS011;2877;48.238;11.160;2023-10-19T09:58:09;10.57;;;4.07;;
5704;SDS011;2877;48.238;11.160;2023-10-19T10:00:43;6.40;;;4.00;;
5704;SDS011;2877;48.238;11.160;2023-10-19T10:06:16;5.60;;;3.40;;
5704;SDS011;2877;48.238;11.160;2023-10-19T10:08:51;5.17;;;3.83;;
5704;SDS011;2877;48.238;11.160;2023-10-19T10:11:18;6.60;;;4.10;;
5704;SDS011;2877;48.238;11.160;2023-10-19T10:13:46;5.77;;;3.47;;
5704;SDS011;2877;48.238;11.160;2023-10-19T10:16:15;3.80;;;3.30;;
5704;SDS011;2877;48.238;11.160;2023-10-19T10:18:42;4.73;;;3.60;;
5704;SDS011;2877;48.238;11.160;2023-10-19T10:21:11;3.57;;;3.27;;
5704;SDS011;2877;48.238;11.160;2023-10-19T10:23:45;5.53;;;3.87;;
5704;SDS011;2877;48.238;11.160;2023-10-19T10:26:17;6.37;;;3.70;;
5704;SDS011;2877;48.238;11.160;2023-10-19T10:28:47;6.30;;;3.90;;
5704;SDS011;2877;48.238;11.160;2023-10-19T10:31:15;4.93;;;3.90;;
5704;SDS011;2877;48.238;11.160;2023-10-19T10:33:46;7.43;;;4.57;;
5704;SDS011;2877;48.238;11.160;2023-10-19T10:36:13;8.13;;;4.60;;
5704;SDS011;2877;48.238;11.160;2023-10-19T10:38:41;8.73;;;4.63;;
5704;SDS011;2877;48.238;11.160;2023-10-19T10:41:08;8.67;;;4.20;;
5704;SDS011;2877;48.238;11.160;2023-10-19T10:43:53;16.63;;;4.47;;
5704;SDS011;2877;48.238;11.160;2023-10-19T10:46:23;8.27;;;4.70;;
5704;SDS011;2877;48.238;11.160;2023-10-19T10:48:53;6.63;;;5.17;;
5704;SDS011;2877;48.238;11.160;2023-10-19T10:53:47;11.80;;;4.60;;
5704;SDS011;2877;48.238;11.160;2023-10-19T10:56:14;9.03;;;3.70;;
5704;SDS011;2877;48.238;11.160;2023-10-19T10:58:40;5.07;;;3.50;;
5704;SDS011;2877;48.238;11.160;2023-10-19T11:01:06;4.23;;;3.60;;
5704;SDS011;2877;48.238;11.160;2023-10-19T11:03:32;4.10;;;3.40;;
5704;SDS011;2877;48.238;11.160;2023-10-19T11:06:06;4.30;;;3.10;;
5704;SDS011;2877;48.238;11.160;2023-10-19T11:08:33;3.70;;;3.00;;
5704;SDS011;2877;48.238;11.160;2023-10-19T11:11:03;6.10;;;3.40;;
5704;SDS011;2877;48.238;11.160;2023-10-19T11:13:36;3.40;;;2.70;;
5704;SDS011;2877;48.238;11.160;2023-10-19T11:16:03;6.80;;;3.40;;
5704;SDS011;2877;48.238;11.160;2023-10-19T11:20:58;3.73;;;3.00;;
5704;SDS011;2877;48.238;11.160;2023-10-19T11:26:09;3.90;;;3.50;;
5704;SDS011;2877;48.238;11.160;2023-10-19T11:28:36;4.27;;;3.67;;
5704;SDS011;2877;48.238;11.160;2023-10-19T11:31:20;4.10;;;3.20;;
5704;SDS011;2877;48.238;11.160;2023-10-19T11:33:53;5.10;;;2.97;;
5704;SDS011;2877;48.238;11.160;2023-10-19T11:36:23;4.53;;;3.30;;
5704;SDS011;2877;48.238;11.160;2023-10-19T11:38:50;6.20;;;3.40;;
5704;SDS011;2877;48.238;11.160;2023-10-19T11:41:17;4.03;;;3.63;;
5704;SDS011;2877;48.238;11.160;2023-10-19T11:43:44;4.30;;;3.80;;
5704;SDS011;2877;48.238;11.160;2023-10-19T11:46:10;4.77;;;3.80;;
5704;SDS011;2877;48.238;11.160;2023-10-19T11:48:37;9.30;;;4.13;;
5704;SDS011;2877;48.238;11.160;2023-10-19T11:51:04;7.83;;;4.43;;
5704;SDS011;2877;48.238;11.160;2023-10-19T11:53:34;5.10;;;4.20;;
5704;SDS011;2877;48.238;11.160;2023-10-19T11:56:02;5.53;;;4.60;;
5704;SDS011;2877;48.238;11.160;2023-10-19T11:58:29;4.07;;;3.57;;
5704;SDS011;2877;48.238;11.160;2023-10-19T12:00:55;5.30;;;3.83;;
5704;SDS011;2877;48.238;11.160;2023-10-19T12:03:21;5.43;;;3.53;;
5704;SDS011;2877;48.238;11.160;2023-10-19T12:05:46;4.33;;;3.77;;
5704;SDS011;2877;48.238;11.160;2023-10-19T12:08:12;4.10;;;3.20;;
5704;SDS011;2877;48.238;11.160;2023-10-19T12:10:37;5.50;;;4.00;;
5704;SDS011;2877;48.238;11.160;2023-10-19T12:13:03;4.07;;;3.40;;
5704;SDS011;2877;48.238;11.160;2023-10-19T12:15:33;3.63;;;3.30;;
5704;SDS011;2877;48.238;11.160;2023-10-19T12:17:59;3.30;;;3.10;;
5704;SDS011;2877;48.238;11.160;2023-10-19T12:20:26;5.80;;;3.47;;
5704;SDS011;2877;48.238;11.160;2023-10-19T12:22:52;5.17;;;3.60;;
5704;SDS011;2877;48.238;11.160;2023-10-19T12:25:19;4.80;;;3.20;;
5704;SDS011;2877;48.238;11.160;2023-10-19T12:27:45;3.20;;;2.90;;
5704;SDS011;2877;48.238;11.160;2023-10-19T12:30:11;5.13;;;3.03;;
5704;SDS011;2877;48.238;11.160;2023-10-19T12:32:46;8.27;;;3.80;;
5704;SDS011;2877;48.238;11.160;2023-10-19T12:35:16;4.70;;;3.03;;
5704;SDS011;2877;48.238;11.160;2023-10-19T12:37:44;3.93;;;3.27;;
5704;SDS011;2877;48.238;11.160;2023-10-19T12:40:16;4.67;;;4.00;;
5704;SDS011;2877;48.238;11.160;2023-10-19T12:42:54;3.10;;;2.90;;
5704;SDS011;2877;48.238;11.160;2023-10-19T12:45:21;6.00;;;3.10;;
5704;SDS011;2877;48.238;11.160;2023-10-19T12:47:47;4.00;;;2.80;;
5704;SDS011;2877;48.238;11.160;2023-10-19T12:50:13;3.87;;;2.93;;
5704;SDS011;2877;48.238;11.160;2023-10-19T12:52:39;2.77;;;2.57;;
5704;SDS011;2877;48.238;11.160;2023-10-19T12:55:05;5.50;;;3.40;;
5704;SDS011;2877;48.238;11.160;2023-10-19T12:57:31;4.57;;;3.10;;
5704;SDS011;2877;48.238;11.160;2023-10-19T12:59:57;5.60;;;3.13;;
5704;SDS011;2877;48.238;11.160;2023-10-19T13:02:31;3.97;;;3.67;;
5704;SDS011;2877;48.238;11.160;2023-10-19T13:04:57;3.47;;;3.17;;
5704;SDS011;2877;48.238;11.160;2023-10-19T13:07:24;4.43;;;3.80;;
5704;SDS011;2877;48.238;11.160;2023-10-19T13:09:51;4.07;;;3.67;;
5704;SDS011;2877;48.238;11.160;2023-10-19T13:12:16;4.17;;;3.77;;
5704;SDS011;2877;48.238;11.160;2023-10-19T13:14:48;3.57;;;2.90;;
5704;SDS011;2877;48.238;11.160;2023-10-19T13:17:14;3.23;;;2.77;;
5704;SDS011;2877;48.238;11.160;2023-10-19T13:19:39;2.90;;;2.60;;
5704;SDS011;2877;48.238;11.160;2023-10-19T13:22:05;5.33;;;3.03;;
5704;SDS011;2877;48.238;11.160;2023-10-19T13:24:32;3.27;;;2.97;;
5704;SDS011;2877;48.238;11.160;2023-10-19T13:27:05;4.07;;;3.67;;
5704;SDS011;2877;48.238;11.160;2023-10-19T13:29:31;4.47;;;3.97;;
5704;SDS011;2877;48.238;11.160;2023-10-19T13:32:02;5.23;;;3.70;;
5704;SDS011;2877;48.238;11.160;2023-10-19T13:34:28;5.27;;;4.07;;
5704;SDS011;2877;48.238;11.160;2023-10-19T13:36:53;5.80;;;3.60;;
5704;SDS011;2877;48.238;11.160;2023-10-19T13:39:21;5.17;;;4.57;;
5704;SDS011;2877;48.238;11.160;2023-10-19T13:41:50;4.53;;;4.13;;
5704;SDS011;2877;48.238;11.160;2023-10-19T13:44:17;4.40;;;4.00;;
5704;SDS011;2877;48.238;11.160;2023-10-19T13:46:45;4.60;;;4.20;;
5704;SDS011;2877;48.238;11.160;2023-10-19T13:49:16;6.47;;;4.77;;
5704;SDS011;2877;48.238;11.160;2023-10-19T13:51:43;5.40;;;4.63;;
5704;SDS011;2877;48.238;11.160;2023-10-19T13:54:09;7.47;;;4.80;;
5704;SDS011;2877;48.238;11.160;2023-10-19T13:56:35;8.30;;;5.00;;
5704;SDS011;2877;48.238;11.160;2023-10-19T13:59:00;6.00;;;5.00;;
5704;SDS011;2877;48.238;11.160;2023-10-19T14:01:26;4.80;;;4.30;;
5704;SDS011;2877;48.238;11.160;2023-10-19T14:03:54;4.77;;;4.27;;
5704;SDS011;2877;48.238;11.160;2023-10-19T14:06:22;4.23;;;3.93;;
5704;SDS011;2877;48.238;11.160;2023-10-19T14:08:50;5.40;;;4.00;;
5704;SDS011;2877;48.238;11.160;2023-10-19T14:11:16;9.10;;;4.60;;
5704;SDS011;2877;48.238;11.160;2023-10-19T14:13:42;4.70;;;4.30;;
5704;SDS011;2877;48.238;11.160;2023-10-19T14:16:08;6.43;;;5.50;;
5704;SDS011;2877;48.238;11.160;2023-10-19T14:18:34;6.70;;;5.47;;
5704;SDS011;2877;48.238;11.160;2023-10-19T14:21:01;6.53;;;5.80;;
5704;SDS011;2877;48.238;11.160;2023-10-19T14:23:36;7.20;;;5.17;;
5704;SDS011;2877;48.238;11.160;2023-10-19T14:26:04;7.87;;;6.13;;
5704;SDS011;2877;48.238;11.160;2023-10-19T14:28:29;7.67;;;6.10;;
5704;SDS011;2877;48.238;11.160;2023-10-19T14:30:56;7.67;;;6.80;;
5704;SDS011;2877;48.238;11.160;2023-10-19T14:33:22;8.80;;;7.17;;
5704;SDS011;2877;48.238;11.160;2023-10-19T14:35:47;6.60;;;5.83;;
5704;SDS011;2877;48.238;11.160;2023-10-19T14:38:13;6.63;;;5.50;;
5704;SDS011;2877;48.238;11.160;2023-10-19T14:40:40;8.93;;;5.47;;
5704;SDS011;2877;48.238;11.160;2023-10-19T14:43:10;9.67;;;5.60;;
5704;SDS011;2877;48.238;11.160;2023-10-19T14:45:36;7.33;;;5.27;;
5704;SDS011;2877;48.238;11.160;2023-10-19T14:48:02;7.10;;;5.23;;
5704;SDS011;2877;48.238;11.160;2023-10-19T14:50:29;6.73;;;5.83;;
5704;SDS011;2877;48.238;11.160;2023-10-19T14:52:55;10.17;;;6.20;;
5704;SDS011;2877;48.238;11.160;2023-10-19T14:55:21;8.80;;;5.90;;
5704;SDS011;2877;48.238;11.160;2023-10-19T14:57:48;6.97;;;6.13;;
5704;SDS011;2877;48.238;11.160;2023-10-19T15:00:15;7.17;;;5.53;;
5704;SDS011;2877;48.238;11.160;2023-10-19T15:03:07;7.53;;;5.90;;
5704;SDS011;2877;48.238;11.160;2023-10-19T15:05:33;12.30;;;6.07;;